sensor_id;sensor_type;location;lat;lon;timestamp;temperature;humidity
72646;DHT22;60687;53.876;10.674;2024-01-15T00:02:39;2.10;99.90
72646;DHT22;60687;53.876;10.674;2024-01-15T00:12:51;2.00;99.90
72646;DHT22;60687;53.876;10.674;2024-01-15T00:22:56;2.00;99.90
72646;DHT22;60687;53.876;10.674;2024-01-15T00:33:04;2.10;99.90
72646;DHT22;60687;53.876;10.674;2024-01-15T00:43:10;2.10;99.90
72646;DHT22;60687;53.876;10.674;2024-01-15T00:53:15;2.20;99.90
72646;DHT22;60687;53.876;10.674;2024-01-15T01:03:25;2.20;99.90
72646;DHT22;60687;53.876;10.674;2024-01-15T01:13:32;2.30;99.90
72646;DHT22;60687;53.876;10.674;2024-01-15T01:23:36;2.20;99.90
72646;DHT22;60687;53.876;10.674;2024-01-15T01:33:40;2.10;99.90
72646;DHT22;60687;53.876;10.674;2024-01-15T01:43:57;2.00;99.90
72646;DHT22;60687;53.876;10.674;2024-01-15T01:54:10;2.00;99.90
72646;DHT22;60687;53.876;10.674;2024-01-15T02:04:39;2.00;99.90
72646;DHT22;60687;53.876;10.674;2024-01-15T02:14:48;2.00;99.90
72646;DHT22;60687;53.876;10.674;2024-01-15T02:25:08;2.00;99.90
72646;DHT22;60687;53.876;10.674;2024-01-15T02:35:14;2.10;99.90
72646;DHT22;60687;53.876;10.674;2024-01-15T02:45:24;2.20;99.90
72646;DHT22;60687;53.876;10.674;2024-01-15T02:55:35;2.20;99.90
72646;DHT22;60687;53.876;10.674;2024-01-15T03:05:40;2.20;99.90
72646;DHT22;60687;53.876;10.674;2024-01-15T03:15:50;2.10;99.90
72646;DHT22;60687;53.876;10.674;2024-01-15T03:25:54;2.20;99.90
72646;DHT22;60687;53.876;10.674;2024-01-15T03:35:57;2.30;99.90
72646;DHT22;60687;53.876;10.674;2024-01-15T03:46:05;2.30;99.90
72646;DHT22;60687;53.876;10.674;2024-01-15T03:56:12;2.30;99.90
72646;DHT22;60687;53.876;10.674;2024-01-15T04:06:18;2.30;99.90
72646;DHT22;60687;53.876;10.674;2024-01-15T04:16:27;2.30;99.90
72646;DHT22;60687;53.876;10.674;2024-01-15T04:26:33;2.30;99.90
72646;DHT22;60687;53.876;10.674;2024-01-15T04:36:39;2.20;99.90
72646;DHT22;60687;53.876;10.674;2024-01-15T04:46:43;2.30;99.90
72646;DHT22;60687;53.876;10.674;2024-01-15T04:56:46;2.30;99.90
72646;DHT22;60687;53.876;10.674;2024-01-15T05:06:50;2.20;99.90
72646;DHT22;60687;53.876;10.674;2024-01-15T05:16:57;2.20;99.90
72646;DHT22;60687;53.876;10.674;2024-01-15T05:27:01;2.20;99.90
72646;DHT22;60687;53.876;10.674;2024-01-15T05:37:05;2.20;99.90
72646;DHT22;60687;53.876;10.674;2024-01-15T05:47:14;2.30;99.90
72646;DHT22;60687;53.876;10.674;2024-01-15T05:57:22;2.30;99.90
72646;DHT22;60687;53.876;10.674;2024-01-15T06:07:34;2.30;99.90
72646;DHT22;60687;53.876;10.674;2024-01-15T06:17:37;2.40;99.90
72646;DHT22;60687;53.876;10.674;2024-01-15T06:27:41;2.40;99.90
72646;DHT22;60687;53.876;10.674;2024-01-15T06:37:43;2.40;99.30
72646;DHT22;60687;53.876;10.674;2024-01-15T06:47:50;2.40;99.20
72646;DHT22;60687;53.876;10.674;2024-01-15T06:57:53;2.30;99.20
72646;DHT22;60687;53.876;10.674;2024-01-15T07:08:16;2.30;98.90
72646;DHT22;60687;53.876;10.674;2024-01-15T07:18:19;2.30;99.00
72646;DHT22;60687;53.876;10.674;2024-01-15T07:28:31;2.30;99.10
72646;DHT22;60687;53.876;10.674;2024-01-15T07:38:34;2.20;99.50
72646;DHT22;60687;53.876;10.674;2024-01-15T07:48:38;2.20;99.90
72646;DHT22;60687;53.876;10.674;2024-01-15T07:58:41;2.20;99.90
72646;DHT22;60687;53.876;10.674;2024-01-15T08:08:53;2.30;99.90
72646;DHT22;60687;53.876;10.674;2024-01-15T08:19:00;2.40;99.90
72646;DHT22;60687;53.876;10.674;2024-01-15T08:29:04;2.40;99.90
72646;DHT22;60687;53.876;10.674;2024-01-15T08:39:09;2.40;99.90
72646;DHT22;60687;53.876;10.674;2024-01-15T08:49:14;2.50;99.90
72646;DHT22;60687;53.876;10.674;2024-01-15T08:59:17;2.50;99.90
72646;DHT22;60687;53.876;10.674;2024-01-15T09:09:30;2.50;99.90
72646;DHT22;60687;53.876;10.674;2024-01-15T09:19:48;2.50;99.90
72646;DHT22;60687;53.876;10.674;2024-01-15T09:29:56;2.60;99.60
72646;DHT22;60687;53.876;10.674;2024-01-15T09:40:13;2.60;98.60
72646;DHT22;60687;53.876;10.674;2024-01-15T09:50:40;2.60;98.00
72646;DHT22;60687;53.876;10.674;2024-01-15T10:00:57;2.60;94.90
72646;DHT22;60687;53.876;10.674;2024-01-15T10:11:30;2.60;94.00
72646;DHT22;60687;53.876;10.674;2024-01-15T10:22:05;2.60;93.30
72646;DHT22;60687;53.876;10.674;2024-01-15T10:43:35;2.30;90.00
72646;DHT22;60687;53.876;10.674;2024-01-15T11:04:46;2.30;91.90
72646;DHT22;60687;53.876;10.674;2024-01-15T11:15:18;2.20;90.00
72646;DHT22;60687;53.876;10.674;2024-01-15T11:25:54;2.10;89.40
72646;DHT22;60687;53.876;10.674;2024-01-15T11:37:01;2.00;89.00
72646;DHT22;60687;53.876;10.674;2024-01-15T11:47:12;2.00;90.40
72646;DHT22;60687;53.876;10.674;2024-01-15T11:57:49;1.90;91.20
72646;DHT22;60687;53.876;10.674;2024-01-15T12:08:10;1.90;91.10
72646;DHT22;60687;53.876;10.674;2024-01-15T12:18:49;1.80;91.00
72646;DHT22;60687;53.876;10.674;2024-01-15T12:29:06;1.80;90.80
72646;DHT22;60687;53.876;10.674;2024-01-15T12:39:17;1.70;90.90
72646;DHT22;60687;53.876;10.674;2024-01-15T12:49:41;1.70;91.90
72646;DHT22;60687;53.876;10.674;2024-01-15T13:00:06;1.60;91.10
72646;DHT22;60687;53.876;10.674;2024-01-15T13:10:18;1.60;90.80
72646;DHT22;60687;53.876;10.674;2024-01-15T13:20:46;1.60;90.80
72646;DHT22;60687;53.876;10.674;2024-01-15T13:31:34;1.60;91.40
72646;DHT22;60687;53.876;10.674;2024-01-15T13:41:47;1.60;91.00
72646;DHT22;60687;53.876;10.674;2024-01-15T13:52:15;1.60;91.50
72646;DHT22;60687;53.876;10.674;2024-01-15T14:03:15;1.60;91.60
72646;DHT22;60687;53.876;10.674;2024-01-15T14:13:22;1.60;91.40
72646;DHT22;60687;53.876;10.674;2024-01-15T14:23:38;1.50;90.30
72646;DHT22;60687;53.876;10.674;2024-01-15T14:34:03;1.50;90.30
72646;DHT22;60687;53.876;10.674;2024-01-15T14:44:32;1.50;90.30
72646;DHT22;60687;53.876;10.674;2024-01-15T14:54:38;1.40;90.70
72646;DHT22;60687;53.876;10.674;2024-01-15T15:05:05;1.40;91.60
72646;DHT22;60687;53.876;10.674;2024-01-15T15:26:52;1.40;92.10
72646;DHT22;60687;53.876;10.674;2024-01-15T15:37:18;1.30;92.20
72646;DHT22;60687;53.876;10.674;2024-01-15T15:47:38;1.30;92.30
72646;DHT22;60687;53.876;10.674;2024-01-15T15:58:36;1.30;92.30
72646;DHT22;60687;53.876;10.674;2024-01-15T16:20:16;1.20;92.80
72646;DHT22;60687;53.876;10.674;2024-01-15T16:30:37;1.20;92.70
72646;DHT22;60687;53.876;10.674;2024-01-15T16:41:22;1.20;93.20
72646;DHT22;60687;53.876;10.674;2024-01-15T16:52:35;1.20;93.10
72646;DHT22;60687;53.876;10.674;2024-01-15T17:03:38;1.10;93.00
72646;DHT22;60687;53.876;10.674;2024-01-15T17:14:32;1.10;93.50
72646;DHT22;60687;53.876;10.674;2024-01-15T17:24:49;1.10;93.60
72646;DHT22;60687;53.876;10.674;2024-01-15T17:35:17;1.00;93.90
72646;DHT22;60687;53.876;10.674;2024-01-15T17:45:33;1.00;93.90
72646;DHT22;60687;53.876;10.674;2024-01-15T17:55:59;0.90;93.80
72646;DHT22;60687;53.876;10.674;2024-01-15T18:06:12;0.90;93.90
72646;DHT22;60687;53.876;10.674;2024-01-15T18:16:33;0.80;94.40
72646;DHT22;60687;53.876;10.674;2024-01-15T18:26:36;0.80;94.70
72646;DHT22;60687;53.876;10.674;2024-01-15T18:36:42;0.80;94.90
72646;DHT22;60687;53.876;10.674;2024-01-15T18:46:48;0.80;94.70
72646;DHT22;60687;53.876;10.674;2024-01-15T18:56:53;0.80;94.20
72646;DHT22;60687;53.876;10.674;2024-01-15T19:06:58;0.80;94.40
72646;DHT22;60687;53.876;10.674;2024-01-15T19:17:05;0.80;94.70
72646;DHT22;60687;53.876;10.674;2024-01-15T19:27:10;0.60;94.90
72646;DHT22;60687;53.876;10.674;2024-01-15T19:37:17;0.70;94.80
72646;DHT22;60687;53.876;10.674;2024-01-15T19:47:24;0.60;95.50
72646;DHT22;60687;53.876;10.674;2024-01-15T19:57:33;0.60;96.90
72646;DHT22;60687;53.876;10.674;2024-01-15T20:07:37;0.50;98.10
72646;DHT22;60687;53.876;10.674;2024-01-15T20:17:54;0.50;98.00
72646;DHT22;60687;53.876;10.674;2024-01-15T20:28:07;0.40;99.00
72646;DHT22;60687;53.876;10.674;2024-01-15T20:38:32;0.40;99.30
72646;DHT22;60687;53.876;10.674;2024-01-15T20:48:44;0.30;99.70
72646;DHT22;60687;53.876;10.674;2024-01-15T20:59:14;0.30;99.90
72646;DHT22;60687;53.876;10.674;2024-01-15T21:09:23;0.20;99.90
72646;DHT22;60687;53.876;10.674;2024-01-15T21:19:31;0.20;99.90
72646;DHT22;60687;53.876;10.674;2024-01-15T21:29:35;0.00;99.90
72646;DHT22;60687;53.876;10.674;2024-01-15T21:39:40;0.00;99.90
72646;DHT22;60687;53.876;10.674;2024-01-15T21:49:47;0.00;99.90
72646;DHT22;60687;53.876;10.674;2024-01-15T21:59:59;0.00;99.90
72646;DHT22;60687;53.876;10.674;2024-01-15T22:10:14;-0.10;99.90
72646;DHT22;60687;53.876;10.674;2024-01-15T22:20:31;-0.10;99.80
72646;DHT22;60687;53.876;10.674;2024-01-15T22:30:37;-0.10;98.90
72646;DHT22;60687;53.876;10.674;2024-01-15T22:40:45;-0.20;98.30
72646;DHT22;60687;53.876;10.674;2024-01-15T22:50:47;-0.30;98.20
72646;DHT22;60687;53.876;10.674;2024-01-15T23:00:55;-0.40;97.90
72646;DHT22;60687;53.876;10.674;2024-01-15T23:11:04;-0.50;97.00
72646;DHT22;60687;53.876;10.674;2024-01-15T23:21:20;-0.60;97.60
72646;DHT22;60687;53.876;10.674;2024-01-15T23:31:28;-0.70;97.40
72646;DHT22;60687;53.876;10.674;2024-01-15T23:41:34;-0.80;96.70
72646;DHT22;60687;53.876;10.674;2024-01-15T23:51:37;-0.90;96.60
